Terminal Aerodrome Forecast
Issued by NWS

Home | Current Version | Previous Version | Text Only | Print | Product List | Glossary On
Versions: 1 2 3 4 5 6 7 8 9 10 11 12 13 14 15 16 17 18 19
000
FTUS45 KTFX 291100 RRA
TAFLWT
TAF
KLWT 291145Z 2912/3012 25007KT 5SM -SN BR SCT020 BKN035
      TEMPO 2912/2915 3SM -SN
     FM291500 35008KT P6SM SCT035 BKN060
     FM300200 32006KT P6SM BKN040=

USA.gov is the U.S. government's official web portal to all federal, state and local government web resources and services.